Time;durP1;ratioP1;P1;durP2;ratioP2;P2;SDS_P1;SDS_P2;PMS_P1;PMS_P2;Temp;Humidity;BMP_temperature;BMP_pressure;BME280_temperature;BME280_humidity;BME280_pressure;Samples;Min_cycle;Max_cycle;Signal;HPM_P1;HPM_P2
2023/07/20 00:01:09;;;;;;;3.03;1.10;;;16.50;99.90;;;;;;5092638;28;20048;-72
2023/07/20 00:03:34;;;;;;;2.53;1.20;;;16.40;99.90;;;;;;5092290;28;20048;-72
2023/07/20 00:06:00;;;;;;;4.50;1.67;;;16.30;99.90;;;;;;5091424;28;20123;-72
2023/07/20 00:08:26;;;;;;;1.70;1.20;;;16.30;99.90;;;;;;5090992;28;20048;-72
2023/07/20 00:10:51;;;;;;;2.80;1.30;;;16.20;99.90;;;;;;5092754;28;20048;-72
2023/07/20 00:13:18;;;;;;;3.67;1.30;;;16.10;99.90;;;;;;5092756;28;20480;-72
2023/07/20 00:15:44;;;;;;;1.97;1.30;;;16.10;99.90;;;;;;5095872;28;20229;-72
2023/07/20 00:18:10;;;;;;;2.90;1.30;;;16.10;99.90;;;;;;5078284;28;20484;-71
2023/07/20 00:20:36;;;;;;;4.10;1.50;;;16.00;99.90;;;;;;5095504;28;20127;-72
2023/07/20 00:23:01;;;;;;;2.13;1.20;;;16.00;99.90;;;;;;5094923;28;20063;-72
2023/07/20 00:25:27;;;;;;;2.30;1.50;;;15.90;99.90;;;;;;5094655;28;20074;-72
2023/07/20 00:27:53;;;;;;;2.47;1.30;;;;;;;;;;5096404;28;20046;-72
2023/07/20 00:30:19;;;;;;;3.17;1.30;;;15.80;99.90;;;;;;5096050;28;20134;-72
2023/07/20 00:32:45;;;;;;;4.07;1.23;;;15.70;99.90;;;;;;5095629;28;20470;-72
2023/07/20 00:35:11;;;;;;;3.20;1.40;;;15.70;99.90;;;;;;5095972;28;20044;-72
2023/07/20 00:37:38;;;;;;;5.40;1.70;;;15.70;99.90;;;;;;5095618;28;20048;-72
2023/07/20 00:40:05;;;;;;;2.47;1.27;;;15.70;99.90;;;;;;5095712;28;20052;-72
2023/07/20 00:42:31;;;;;;;2.53;1.30;;;15.60;99.90;;;;;;5094962;28;20052;-72
2023/07/20 00:44:57;;;;;;;2.30;1.33;;;15.60;99.90;;;;;;5095351;28;20118;-72
2023/07/20 00:47:23;;;;;;;2.53;1.33;;;15.60;99.90;;;;;;5095666;28;20052;-72
2023/07/20 00:49:50;;;;;;;4.03;1.60;;;15.60;99.90;;;;;;5094985;28;20285;-72
2023/07/20 00:52:16;;;;;;;3.40;1.47;;;15.50;99.90;;;;;;5095468;28;20047;-72
2023/07/20 00:54:42;;;;;;;3.03;1.20;;;15.50;99.90;;;;;;5095044;28;20089;-72
2023/07/20 00:57:08;;;;;;;2.77;1.37;;;15.50;99.90;;;;;;5093738;28;20044;-72
2023/07/20 00:59:35;;;;;;;3.23;1.40;;;15.40;99.90;;;;;;5093683;28;20067;-72
2023/07/20 01:02:02;;;;;;;2.67;1.50;;;15.40;99.90;;;;;;5095111;28;20146;-71
2023/07/20 01:04:28;;;;;;;3.53;1.60;;;15.40;99.90;;;;;;5095240;28;20044;-72
2023/07/20 01:07:05;;;;;;;4.50;1.50;;;15.40;99.90;;;;;;5094779;28;20048;-72
2023/07/20 01:09:52;;;;;;;4.70;1.63;;;15.40;99.90;;;;;;5095064;28;20044;-72
2023/07/20 01:12:41;;;;;;;4.30;1.47;;;15.40;99.90;;;;;;5094841;28;20054;-72
2023/07/20 01:15:08;;;;;;;3.57;1.67;;;15.40;99.90;;;;;;5094877;28;20044;-72
2023/07/20 01:17:34;;;;;;;3.30;1.23;;;15.40;99.90;;;;;;5093618;28;20087;-72
2023/07/20 01:20:00;;;;;;;3.20;1.40;;;15.40;99.90;;;;;;5094875;28;20047;-72
2023/07/20 01:23:03;;;;;;;2.97;1.80;;;15.40;99.90;;;;;;5094767;28;20048;-72
2023/07/20 01:25:56;;;;;;;2.13;1.50;;;15.30;99.90;;;;;;5093650;28;20117;-72
2023/07/20 01:28:48;;;;;;;3.50;1.90;;;15.30;99.90;;;;;;5093738;28;20127;-72
2023/07/20 01:31:30;;;;;;;3.60;1.87;;;15.20;99.90;;;;;;5094820;28;20044;-72
2023/07/20 01:33:58;;;;;;;3.33;1.83;;;15.20;99.90;;;;;;5094541;28;20043;-72
2023/07/20 01:36:28;;;;;;;4.37;1.60;;;15.20;99.90;;;;;;5094672;28;20052;-72
2023/07/20 01:38:54;;;;;;;3.40;1.80;;;15.20;99.90;;;;;;5093420;28;20048;-72
2023/07/20 01:41:20;;;;;;;4.47;1.97;;;15.10;99.90;;;;;;5094490;28;20502;-72
2023/07/20 01:43:46;;;;;;;3.80;1.77;;;15.10;99.90;;;;;;5094013;28;20380;-72
2023/07/20 01:46:12;;;;;;;3.00;1.57;;;15.00;99.90;;;;;;5094417;28;20330;-72
2023/07/20 01:48:37;;;;;;;4.00;1.80;;;15.00;99.90;;;;;;5094115;28;20044;-72
2023/07/20 01:51:03;;;;;;;4.33;1.93;;;15.10;99.90;;;;;;5094277;28;20502;-72
2023/07/20 01:53:29;;;;;;;3.10;1.73;;;15.10;99.90;;;;;;5093220;28;20105;-72
2023/07/20 01:55:55;;;;;;;3.73;2.10;;;15.00;99.90;;;;;;5093608;28;20051;-72
2023/07/20 01:58:21;;;;;;;4.27;2.17;;;15.00;99.90;;;;;;5094463;28;20048;-72
2023/07/20 02:00:46;;;;;;;4.57;2.07;;;15.00;99.90;;;;;;5093909;28;20053;-72
2023/07/20 02:03:12;;;;;;;6.13;2.37;;;15.00;99.90;;;;;;5094109;28;20376;-72
2023/07/20 02:05:38;;;;;;;4.70;2.10;;;15.00;99.90;;;;;;5093951;28;20044;-72
2023/07/20 02:08:04;;;;;;;5.03;2.00;;;15.00;99.90;;;;;;5094030;28;20052;-72
2023/07/20 02:10:30;;;;;;;3.30;1.80;;;14.90;99.90;;;;;;5093857;28;20056;-72
2023/07/20 02:12:56;;;;;;;5.63;2.40;;;14.90;99.90;;;;;;5093612;28;20054;-72
2023/07/20 02:15:22;;;;;;;3.90;2.10;;;14.90;99.90;;;;;;5093777;28;20129;-72
2023/07/20 02:17:48;;;;;;;4.20;2.20;;;14.80;99.90;;;;;;5093962;28;20463;-72
2023/07/20 02:20:14;;;;;;;3.67;1.80;;;14.80;99.90;;;;;;5093712;28;20083;-72
2023/07/20 02:22:40;;;;;;;3.37;2.10;;;14.80;99.90;;;;;;5093772;28;20077;-72
2023/07/20 02:25:07;;;;;;;5.93;1.80;;;14.80;99.90;;;;;;5093708;28;20044;-72
2023/07/20 02:27:34;;;;;;;5.03;2.20;;;14.80;99.90;;;;;;5092555;28;20180;-72
2023/07/20 02:29:59;;;;;;;3.63;1.87;;;14.80;99.90;;;;;;5093388;28;20074;-72
2023/07/20 02:32:25;;;;;;;3.83;2.03;;;14.80;99.90;;;;;;5093762;28;20516;-72
2023/07/20 02:34:51;;;;;;;4.07;2.20;;;14.70;99.90;;;;;;5093209;28;20079;-72
2023/07/20 02:37:17;;;;;;;5.17;2.00;;;14.70;99.90;;;;;;5091901;28;20083;-72
2023/07/20 02:39:43;;;;;;;3.87;1.80;;;14.70;99.90;;;;;;5091784;28;20066;-72
2023/07/20 02:42:09;;;;;;;3.70;1.80;;;14.60;99.90;;;;;;5092887;28;20051;-72
2023/07/20 02:44:35;;;;;;;4.17;2.10;;;14.60;99.90;;;;;;5093086;28;20044;-72
2023/07/20 02:47:00;;;;;;;3.73;2.20;;;14.50;99.90;;;;;;5092834;28;20040;-72
2023/07/20 02:49:27;;;;;;;5.03;2.30;;;14.40;99.90;;;;;;5093096;28;20139;-72
2023/07/20 02:51:52;;;;;;;3.00;1.90;;;14.40;99.90;;;;;;5092837;28;20051;-72
2023/07/20 02:54:18;;;;;;;3.47;1.87;;;14.40;99.90;;;;;;5092995;28;20044;-71
2023/07/20 02:56:44;;;;;;;5.07;2.00;;;14.40;99.90;;;;;;5093048;28;20100;-72
2023/07/20 02:59:10;;;;;;;7.00;2.23;;;14.40;99.90;;;;;;5092973;28;20395;-72
2023/07/20 03:01:35;;;;;;;3.40;2.10;;;14.40;99.90;;;;;;5092780;28;20551;-72
2023/07/20 03:04:02;;;;;;;5.10;2.17;;;14.40;99.90;;;;;;5092609;28;20044;-72
2023/07/20 03:06:28;;;;;;;6.53;2.33;;;14.40;99.90;;;;;;5092923;28;20407;-72
2023/07/20 03:08:53;;;;;;;3.23;2.00;;;14.40;99.90;;;;;;5091383;28;20278;-72
2023/07/20 03:11:20;;;;;;;5.37;3.00;;;14.40;99.90;;;;;;5092138;28;20140;-67
2023/07/20 03:13:46;;;;;;;4.10;1.87;;;14.30;99.90;;;;;;5074804;28;20043;-69
2023/07/20 03:16:17;;;;;;;3.87;2.17;;;14.30;99.90;;;;;;5074739;28;20355;-70
2023/07/20 03:18:43;;;;;;;3.00;1.87;;;14.30;99.90;;;;;;5092468;28;20734;-70
2023/07/20 03:21:13;;;;;;;5.60;2.13;;;14.40;99.90;;;;;;5073963;28;20282;-70
2023/07/20 03:23:40;;;;;;;3.40;2.07;;;14.30;99.90;;;;;;5092835;28;20366;-69
2023/07/20 03:26:08;;;;;;;4.10;2.07;;;14.20;99.90;;;;;;5092475;28;20270;-70
2023/07/20 03:28:37;;;;;;;4.27;2.40;;;14.20;99.90;;;;;;5092883;28;20331;-69
2023/07/20 03:31:04;;;;;;;3.90;2.20;;;14.10;99.90;;;;;;5092509;28;20285;-69
2023/07/20 03:33:30;;;;;;;5.47;2.20;;;14.10;99.90;;;;;;5092690;28;20278;-69
2023/07/20 03:35:56;;;;;;;3.60;2.20;;;14.20;99.90;;;;;;5092138;28;20294;-69
2023/07/20 03:38:24;;;;;;;5.30;2.50;;;14.10;99.90;;;;;;5092612;28;20274;-69
2023/07/20 03:40:58;;;;;;;4.60;2.57;;;14.10;99.90;;;;;;5092275;28;20762;-70
2023/07/20 03:43:25;;;;;;;3.53;2.40;;;14.10;99.90;;;;;;5092333;28;20290;-68
2023/07/20 03:45:51;;;;;;;4.93;2.77;;;14.10;99.90;;;;;;5092399;28;20742;-72
2023/07/20 03:48:21;;;;;;;6.33;2.87;;;14.10;99.90;;;;;;5092852;28;20273;-71
2023/07/20 03:50:48;;;;;;;5.27;2.57;;;14.00;99.90;;;;;;5096690;28;20286;-72
2023/07/20 03:53:15;;;;;;;4.23;2.67;;;14.00;99.90;;;;;;5096360;28;20746;-72
2023/07/20 03:55:44;;;;;;;6.67;2.50;;;14.00;99.90;;;;;;5096579;28;20290;-72
2023/07/20 03:58:09;;;;;;;5.90;2.50;;;14.00;99.90;;;;;;5096349;28;20278;-72
2023/07/20 04:00:35;;;;;;;4.50;2.80;;;13.90;99.90;;;;;;5096809;28;20672;-72
2023/07/20 04:03:01;;;;;;;4.60;2.40;;;14.00;99.90;;;;;;5078285;28;20048;-72
2023/07/20 04:05:27;;;;;;;3.97;2.43;;;14.00;99.90;;;;;;5096666;28;20070;-72
2023/07/20 04:07:52;;;;;;;4.10;2.43;;;14.10;99.90;;;;;;5096345;28;20040;-72
2023/07/20 04:10:19;;;;;;;5.47;2.70;;;14.00;99.90;;;;;;5096500;28;20051;-72
2023/07/20 04:12:46;;;;;;;3.60;2.30;;;14.10;99.90;;;;;;5096292;28;20044;-72
2023/07/20 04:15:13;;;;;;;4.00;2.27;;;14.10;99.90;;;;;;5095927;28;20294;-72
2023/07/20 04:17:40;;;;;;;3.90;2.27;;;14.10;99.90;;;;;;5096549;28;20362;-72
2023/07/20 04:20:07;;;;;;;7.27;2.77;;;14.10;99.90;;;;;;5095891;28;20365;-72
2023/07/20 04:22:32;;;;;;;5.93;2.50;;;14.10;99.90;;;;;;5096092;28;20308;-72
2023/07/20 04:24:58;;;;;;;5.90;2.60;;;14.10;99.90;;;;;;5095772;28;20271;-72
2023/07/20 04:27:24;;;;;;;4.00;2.30;;;14.10;99.90;;;;;;5095153;28;20102;-72
2023/07/20 04:29:49;;;;;;;4.13;2.53;;;14.20;99.90;;;;;;5094844;28;20533;-72
2023/07/20 04:32:15;;;;;;;4.07;2.60;;;14.10;99.90;;;;;;5094739;28;20269;-72
2023/07/20 04:34:42;;;;;;;6.77;2.50;;;14.20;99.90;;;;;;5095974;28;20032;-72
2023/07/20 04:37:08;;;;;;;5.23;2.60;;;14.20;99.90;;;;;;5094574;28;20048;-71
2023/07/20 04:39:33;;;;;;;4.83;2.70;;;14.20;99.90;;;;;;5095775;28;20289;-71
2023/07/20 04:41:59;;;;;;;4.20;2.90;;;14.30;99.90;;;;;;5095550;28;20496;-72
2023/07/20 04:44:25;;;;;;;4.50;2.50;;;14.30;99.90;;;;;;5095731;28;20085;-72
2023/07/20 04:46:50;;;;;;;4.67;2.77;;;14.30;99.90;;;;;;5095634;28;20083;-72
2023/07/20 04:49:16;;;;;;;6.50;2.37;;;14.30;99.90;;;;;;5095439;28;20048;-72
2023/07/20 04:51:42;;;;;;;5.53;2.47;;;14.40;99.90;;;;;;5095981;28;20079;-71
2023/07/20 04:54:08;;;;;;;4.00;2.33;;;14.40;99.90;;;;;;5095134;28;20051;-72
2023/07/20 04:56:34;;;;;;;6.43;2.40;;;14.50;99.90;;;;;;5095512;28;20044;-72
2023/07/20 04:58:59;;;;;;;5.27;2.70;;;14.60;99.90;;;;;;5095122;28;20444;-73
2023/07/20 05:01:26;;;;;;;4.17;2.37;;;14.60;99.90;;;;;;5095151;28;20044;-72
2023/07/20 05:03:53;;;;;;;4.00;2.40;;;14.70;99.90;;;;;;5095366;28;20051;-72
2023/07/20 05:06:18;;;;;;;3.83;2.50;;;14.70;99.90;;;;;;5095029;28;20278;-72
2023/07/20 05:08:44;;;;;;;5.03;2.43;;;14.90;99.90;;;;;;5095534;28;20285;-72
2023/07/20 05:11:11;;;;;;;6.30;2.40;;;15.00;99.90;;;;;;5093977;28;20369;-72
2023/07/20 05:13:37;;;;;;;5.17;2.27;;;15.10;99.90;;;;;;5093955;28;20298;-72
2023/07/20 05:16:03;;;;;;;4.63;2.20;;;15.20;99.90;;;;;;5094798;28;20293;-72
2023/07/20 05:18:29;;;;;;;4.13;2.20;;;15.30;99.90;;;;;;5095059;28;20518;-72
2023/07/20 05:20:55;;;;;;;4.90;2.20;;;15.50;99.90;;;;;;5093751;28;20365;-72
2023/07/20 05:23:21;;;;;;;6.07;2.50;;;15.60;99.90;;;;;;5094509;28;20055;-72
2023/07/20 05:25:53;;;;;;;4.10;2.30;;;15.70;99.90;;;;;;5094891;28;20051;-72
2023/07/20 05:28:19;;;;;;;4.30;2.20;;;15.90;99.90;;;;;;5093483;28;20048;-72
2023/07/20 05:30:45;;;;;;;4.17;2.07;;;16.00;99.90;;;;;;5095109;28;20055;-72
2023/07/20 05:33:10;;;;;;;4.17;1.90;;;16.10;99.90;;;;;;5094369;28;20476;-72
2023/07/20 05:35:37;;;;;;;3.93;2.27;;;16.30;99.90;;;;;;5094457;28;20480;-72
2023/07/20 05:38:05;;;;;;;4.50;1.83;;;16.40;99.90;;;;;;5094512;28;20548;-72
2023/07/20 05:40:31;;;;;;;4.50;2.20;;;16.50;99.90;;;;;;5094718;28;20048;-72
2023/07/20 05:42:56;;;;;;;3.80;2.00;;;16.80;99.90;;;;;;5094154;28;20098;-72
2023/07/20 05:45:23;;;;;;;4.20;1.90;;;16.90;99.90;;;;;;5094139;28;20488;-72
2023/07/20 05:47:48;;;;;;;4.10;2.00;;;17.10;99.90;;;;;;5094399;28;20424;-72
2023/07/20 05:50:14;;;;;;;3.60;1.93;;;17.20;99.90;;;;;;5092808;28;20044;-72
2023/07/20 05:52:40;;;;;;;4.57;1.83;;;17.30;99.90;;;;;;5094497;28;20056;-72
2023/07/20 05:55:07;;;;;;;4.47;2.10;;;17.50;99.90;;;;;;5093984;28;20081;-73
2023/07/20 05:57:33;;;;;;;4.50;2.20;;;18.10;99.90;;;;;;5093986;28;20079;-72
2023/07/20 05:59:58;;;;;;;6.43;1.80;;;19.50;99.90;;;;;;5093960;28;20157;-72
2023/07/20 06:02:24;;;;;;;4.53;1.90;;;21.00;99.90;;;;;;5093814;28;20051;-72
2023/07/20 06:04:50;;;;;;;3.87;1.80;;;22.20;99.90;;;;;;5093933;28;20477;-72
2023/07/20 06:07:15;;;;;;;5.40;1.97;;;23.20;99.90;;;;;;5093708;28;20051;-73
2023/07/20 06:09:41;;;;;;;4.70;1.57;;;24.20;99.90;;;;;;5092575;28;20411;-73
2023/07/20 06:12:07;;;;;;;4.97;1.50;;;24.90;99.90;;;;;;5093271;28;20048;-73
2023/07/20 06:14:33;;;;;;;4.87;1.40;;;25.60;99.90;;;;;;5093848;28;20048;-72
2023/07/20 06:16:59;;;;;;;5.23;1.50;;;26.20;99.90;;;;;;5094000;28;20048;-72
2023/07/20 06:19:25;;;;;;;3.17;1.40;;;26.70;99.90;;;;;;5093684;28;20044;-73
2023/07/20 06:21:50;;;;;;;2.83;1.30;;;27.20;99.90;;;;;;5093846;28;20048;-72
2023/07/20 06:24:19;;;;;;;3.70;1.40;;;27.80;96.70;;;;;;5093195;28;20048;-73
2023/07/20 06:26:45;;;;;;;3.53;1.20;;;28.30;78.30;;;;;;5093758;28;20040;-73
2023/07/20 06:29:11;;;;;;;3.40;1.27;;;28.60;89.10;;;;;;5093601;28;20054;-73
2023/07/20 06:31:37;;;;;;;4.20;1.20;;;29.10;81.50;;;;;;5093931;28;20040;-73
2023/07/20 06:34:03;;;;;;;3.27;1.37;;;29.40;71.50;;;;;;5093688;28;20081;-73
2023/07/20 06:36:29;;;;;;;4.15;1.40;;;29.80;66.70;;;;;;5092068;28;20044;-73
2023/07/20 06:38:55;;;;;;;2.72;1.23;;;30.20;62.00;;;;;;5093613;28;20048;-73
2023/07/20 06:41:22;;;;;;;4.55;1.50;;;30.60;57.30;;;;;;5092187;28;20060;-73
2023/07/20 06:43:48;;;;;;;3.22;1.20;;;30.70;55.40;;;;;;5093516;28;20056;-73
2023/07/20 06:46:14;;;;;;;3.40;1.25;;;30.90;54.20;;;;;;5093232;28;20062;-73
2023/07/20 06:48:40;;;;;;;6.53;1.35;;;31.50;53.30;;;;;;5092220;28;20547;-73
2023/07/20 06:51:05;;;;;;;4.07;1.40;;;31.60;51.30;;;;;;5093477;28;20039;-73
2023/07/20 06:53:31;;;;;;;2.80;1.25;;;31.80;50.20;;;;;;5093051;28;20499;-72
2023/07/20 06:55:57;;;;;;;3.83;1.55;;;31.90;49.10;;;;;;5093297;28;20044;-72
2023/07/20 06:58:25;;;;;;;2.92;1.65;;;32.20;48.70;;;;;;5092706;28;20044;-73
2023/07/20 07:00:52;;;;;;;3.17;1.50;;;32.40;46.10;;;;;;5093154;28;20040;-73
2023/07/20 07:03:17;;;;;;;2.33;1.73;;;32.70;46.60;;;;;;5092945;28;20079;-74
2023/07/20 07:05:47;;;;;;;3.17;1.70;;;33.00;45.30;;;;;;5092267;28;20052;-74
2023/07/20 07:08:12;;;;;;;2.85;1.60;;;33.00;44.30;;;;;;5091915;28;20047;-75
2023/07/20 07:10:38;;;;;;;3.90;1.50;;;33.20;44.70;;;;;;5091806;28;20044;-74
2023/07/20 07:13:04;;;;;;;2.75;1.65;;;33.30;43.60;;;;;;5093079;28;20092;-74
2023/07/20 07:15:30;;;;;;;2.58;1.40;;;33.50;43.70;;;;;;5092686;28;20048;-75
2023/07/20 07:17:56;;;;;;;4.38;1.50;;;33.20;42.80;;;;;;5092036;28;20365;-74
2023/07/20 07:20:23;;;;;;;3.33;1.50;;;33.00;42.70;;;;;;5091550;28;20322;-74
2023/07/20 07:22:51;;;;;;;6.28;1.80;;;32.90;43.80;;;;;;5093311;28;20063;-72
2023/07/20 07:25:17;;;;;;;4.47;2.05;;;33.10;42.90;;;;;;5092866;28;20040;-72
2023/07/20 07:27:43;;;;;;;2.72;1.42;;;33.30;42.50;;;;;;5092842;28;20051;-72
2023/07/20 07:30:09;;;;;;;3.47;1.50;;;32.80;41.30;;;;;;5092872;28;20142;-72
2023/07/20 07:32:35;;;;;;;2.92;1.40;;;31.40;41.90;;;;;;5091365;28;20047;-72
2023/07/20 07:35:01;;;;;;;3.78;2.00;;;30.00;43.50;;;;;;5092925;28;20036;-72
2023/07/20 07:37:27;;;;;;;3.40;1.75;;;28.70;45.60;;;;;;5091254;28;20430;-72
2023/07/20 07:39:52;;;;;;;4.75;2.10;;;27.50;46.10;;;;;;5092927;28;20499;-72
2023/07/20 07:42:21;;;;;;;4.03;2.15;;;26.40;47.30;;;;;;5092709;28;20058;-73
2023/07/20 07:44:47;;;;;;;3.42;1.90;;;25.50;48.80;;;;;;5091880;28;20040;-72
2023/07/20 07:47:12;;;;;;;5.53;2.30;;;25.00;50.30;;;;;;5092821;28;20105;-72
2023/07/20 07:49:38;;;;;;;3.80;1.77;;;25.70;52.50;;;;;;5092375;28;20044;-72
2023/07/20 07:52:04;;;;;;;4.35;2.10;;;27.10;51.30;;;;;;5092693;28;20054;-72
2023/07/20 07:54:30;;;;;;;5.63;2.10;;;28.60;49.30;;;;;;5092316;28;20043;-72
2023/07/20 07:56:56;;;;;;;4.72;2.38;;;29.60;46.90;;;;;;5091397;28;20157;-72
2023/07/20 07:59:22;;;;;;;3.30;1.85;;;30.60;45.70;;;;;;5092285;28;20075;-72
2023/07/20 08:01:48;;;;;;;4.75;2.17;;;31.50;43.40;;;;;;5091742;28;20048;-72
2023/07/20 08:04:13;;;;;;;3.03;1.83;;;32.10;41.80;;;;;;5091612;28;20475;-73
2023/07/20 08:06:40;;;;;;;4.13;2.30;;;32.50;41.10;;;;;;5092202;28;20048;-72
2023/07/20 08:09:05;;;;;;;4.93;2.05;;;33.10;40.60;;;;;;5092530;28;20044;-74
2023/07/20 08:11:33;;;;;;;4.55;1.80;;;;;;;;;;5092508;28;20376;-74
2023/07/20 08:14:00;;;;;;;5.78;2.00;;;33.80;38.30;;;;;;5092515;28;20075;-74
2023/07/20 08:16:26;;;;;;;3.95;1.70;;;34.00;37.90;;;;;;5092098;28;20093;-75
2023/07/20 08:18:52;;;;;;;3.05;1.85;;;34.10;38.00;;;;;;5092464;28;20051;-74
2023/07/20 08:21:17;;;;;;;4.75;2.15;;;34.50;37.80;;;;;;5092341;28;20043;-75
2023/07/20 08:23:43;;;;;;;3.78;2.03;;;34.50;37.20;;;;;;5092053;28;20044;-73
2023/07/20 08:26:09;;;;;;;4.10;1.90;;;34.70;36.80;;;;;;5092497;28;20502;-73
2023/07/20 08:28:35;;;;;;;4.38;2.20;;;34.50;36.50;;;;;;5092072;28;20047;-71
2023/07/20 08:31:00;;;;;;;7.90;2.85;;;34.50;37.00;;;;;;5092336;28;20411;-72
2023/07/20 08:33:29;;;;;;;5.97;1.90;;;34.30;36.90;;;;;;5091877;28;20044;-73
2023/07/20 08:35:56;;;;;;;4.50;2.22;;;34.30;37.20;;;;;;5094954;28;20096;-72
2023/07/20 08:38:22;;;;;;;4.18;2.13;;;34.10;37.00;;;;;;5094906;28;20458;-72
2023/07/20 08:40:47;;;;;;;4.55;2.10;;;34.00;37.60;;;;;;5095731;28;20044;-72
2023/07/20 08:43:16;;;;;;;3.60;2.00;;;33.70;37.80;;;;;;5095562;28;20518;-72
2023/07/20 08:45:44;;;;;;;4.63;2.60;;;33.30;38.90;;;;;;5095750;28;20048;-72
2023/07/20 08:48:12;;;;;;;5.00;2.20;;;32.50;38.60;;;;;;5095779;28;20466;-72
2023/07/20 08:50:38;;;;;;;5.50;2.05;;;31.90;39.30;;;;;;5095597;28;20048;-75
2023/07/20 08:53:04;;;;;;;4.28;1.95;;;31.00;40.20;;;;;;5095427;28;20044;-72
2023/07/20 08:55:31;;;;;;;4.53;2.17;;;30.40;40.10;;;;;;5094105;28;20054;-73
2023/07/20 08:57:59;;;;;;;4.50;2.13;;;29.50;40.70;;;;;;5095539;28;20051;-72
2023/07/20 09:00:26;;;;;;;4.03;2.17;;;28.70;42.10;;;;;;5095447;28;20135;-73
2023/07/20 09:02:54;;;;;;;5.50;2.20;;;28.20;42.80;;;;;;5095163;28;20040;-72
2023/07/20 09:05:20;;;;;;;4.65;2.80;;;27.70;43.40;;;;;;5095522;28;20048;-73
2023/07/20 09:07:47;;;;;;;5.00;2.03;;;27.20;44.10;;;;;;5093932;28;20063;-72
2023/07/20 09:10:12;;;;;;;4.80;2.53;;;26.50;44.30;;;;;;5095098;28;20044;-72
2023/07/20 09:12:40;;;;;;;6.95;2.45;;;26.00;45.40;;;;;;5094996;28;20177;-71
2023/07/20 09:15:06;;;;;;;7.18;2.80;;;25.60;46.50;;;;;;5095149;28;20044;-71
2023/07/20 09:17:33;;;;;;;7.25;2.35;;;25.10;47.80;;;;;;5095287;28;20035;-69
2023/07/20 09:19:59;;;;;;;7.15;2.55;;;24.90;48.60;;;;;;5095339;28;20039;-70
2023/07/20 09:22:31;;;;;;;4.90;2.08;;;24.80;49.10;;;;;;5094994;28;20051;-70
2023/07/20 09:24:58;;;;;;;5.70;2.30;;;24.80;49.90;;;;;;5094699;28;20093;-71
2023/07/20 09:27:36;;;;;;;4.05;1.95;;;24.90;49.70;;;;;;5095044;28;20197;-70
2023/07/20 09:30:02;;;;;;;4.45;2.10;;;25.20;49.80;;;;;;5094933;28;20473;-71
2023/07/20 09:32:28;;;;;;;5.82;2.05;;;25.40;50.20;;;;;;5094596;28;20489;-68
2023/07/20 09:34:54;;;;;;;7.95;2.28;;;25.40;50.20;;;;;;5094485;28;20202;-68
2023/07/20 09:37:24;;;;;;;3.80;1.83;;;25.40;50.20;;;;;;5094789;28;20189;-68
2023/07/20 09:39:56;;;;;;;4.10;1.80;;;25.60;50.20;;;;;;5094509;28;20048;-71
2023/07/20 09:42:22;;;;;;;4.28;2.13;;;25.50;50.50;;;;;;5094770;28;20056;-71
2023/07/20 09:44:50;;;;;;;5.05;1.70;;;25.50;50.40;;;;;;5094126;28;20048;-70
2023/07/20 09:47:22;;;;;;;3.92;2.00;;;25.50;49.80;;;;;;5094653;28;20043;-73
2023/07/20 09:49:48;;;;;;;6.22;2.13;;;25.40;49.60;;;;;;5094380;28;20060;-72
2023/07/20 09:52:15;;;;;;;3.95;1.80;;;25.20;49.90;;;;;;5094538;28;20036;-72
2023/07/20 09:54:44;;;;;;;4.17;1.80;;;25.00;49.80;;;;;;5092933;28;20044;-73
2023/07/20 09:57:13;;;;;;;7.95;1.80;;;24.70;50.90;;;;;;5094439;28;20052;-73
2023/07/20 09:59:39;;;;;;;6.00;1.90;;;24.50;51.70;;;;;;5093228;28;20044;-73
2023/07/20 10:02:33;;;;;;;4.33;1.70;;;24.30;52.00;;;;;;5093448;28;20048;-74
2023/07/20 10:05:04;;;;;;;6.00;1.65;;;24.00;52.60;;;;;;5087859;28;20055;-69
2023/07/20 10:07:30;;;;;;;3.30;1.70;;;23.90;53.50;;;;;;5094427;28;20109;-69
2023/07/20 10:10:01;;;;;;;5.00;1.70;;;23.80;53.90;;;;;;5093982;28;20131;-69
2023/07/20 10:12:28;;;;;;;4.20;1.73;;;23.80;53.90;;;;;;5093268;28;20044;-69
2023/07/20 10:15:10;;;;;;;5.83;1.83;;;23.90;53.90;;;;;;5093655;28;20112;-69
2023/07/20 10:17:49;;;;;;;4.53;1.90;;;23.80;54.30;;;;;;5094137;28;20051;-69
2023/07/20 10:20:19;;;;;;;5.93;2.10;;;23.90;54.60;;;;;;5094168;28;20079;-72
2023/07/20 10:22:49;;;;;;;3.53;1.70;;;23.80;54.20;;;;;;5093845;28;20055;-72
2023/07/20 10:25:16;;;;;;;3.43;1.70;;;23.80;54.10;;;;;;5092658;28;20050;-73
2023/07/20 10:27:43;;;;;;;6.50;2.10;;;23.80;53.60;;;;;;5092441;28;20040;-73
2023/07/20 10:30:09;;;;;;;4.13;1.57;;;23.90;54.00;;;;;;5093839;28;20047;-73
2023/07/20 10:32:35;;;;;;;5.17;1.60;;;24.00;55.10;;;;;;5092662;28;20055;-73
2023/07/20 10:35:01;;;;;;;5.03;1.67;;;24.10;55.50;;;;;;5092153;28;20078;-73
2023/07/20 10:37:45;;;;;;;5.27;1.80;;;24.00;56.00;;;;;;5093656;28;20076;-73
2023/07/20 10:40:27;;;;;;;;;;;23.70;55.20;;;;;;5093956;28;20193;-73
2023/07/20 10:43:09;;;;;;;2.93;1.30;;;23.70;57.40;;;;;;5091681;28;19920;-73
2023/07/20 10:45:48;;;;;;;4.10;1.50;;;23.40;56.10;;;;;;5093493;28;20040;-72
2023/07/20 10:48:19;;;;;;;4.20;1.67;;;23.30;57.10;;;;;;5093484;28;20492;-71
2023/07/20 10:51:05;;;;;;;4.40;1.90;;;23.40;57.60;;;;;;5093171;28;20044;-71
2023/07/20 10:53:31;;;;;;;4.20;1.63;;;23.50;57.00;;;;;;5093247;28;20048;-72
2023/07/20 10:56:20;;;;;;;4.43;1.90;;;23.70;56.90;;;;;;5092923;28;20043;-69
2023/07/20 10:58:45;;;;;;;5.77;1.80;;;23.70;56.10;;;;;;5092695;28;20047;-70
2023/07/20 11:01:16;;;;;;;3.60;2.00;;;23.60;54.90;;;;;;5093146;28;20507;-70
2023/07/20 11:03:44;;;;;;;5.63;2.33;;;23.60;55.00;;;;;;5093249;28;20040;-70
2023/07/20 11:06:27;;;;;;;11.63;4.23;;;23.50;59.70;;;;;;5092811;28;20052;-70
2023/07/20 11:08:57;;;;;;;7.37;3.37;;;23.00;99.90;;;;;;5091677;28;20055;-72
2023/07/20 11:11:26;;;;;;;6.53;2.30;;;22.30;99.90;;;;;;5093247;28;20127;-71
2023/07/20 11:14:00;;;;;;;8.17;2.73;;;21.90;99.90;;;;;;5092517;28;20499;-71
2023/07/20 11:16:45;;;;;;;6.10;2.17;;;21.70;99.90;;;;;;5093201;28;20047;-71
2023/07/20 11:19:25;;;;;;;7.10;2.80;;;21.60;99.90;;;;;;5092831;28;20079;-71
2023/07/20 11:21:53;;;;;;;6.13;2.10;;;21.50;99.90;;;;;;5092700;28;20048;-71
2023/07/20 11:24:19;;;;;;;8.90;2.40;;;21.60;99.90;;;;;;5091742;28;20484;-70
2023/07/20 11:26:54;;;;;;;5.93;2.40;;;21.50;99.90;;;;;;5093015;28;20077;-71
2023/07/20 11:29:23;;;;;;;6.00;2.30;;;21.70;99.90;;;;;;5092862;28;20518;-71
2023/07/20 11:31:49;;;;;;;5.50;2.17;;;21.70;99.90;;;;;;5092925;28;20192;-70
2023/07/20 11:34:17;;;;;;;5.97;2.27;;;21.70;99.90;;;;;;5086452;28;20055;-71
2023/07/20 11:36:45;;;;;;;4.60;2.27;;;21.80;99.90;;;;;;5074138;28;20120;-71
2023/07/20 11:39:21;;;;;;;3.30;1.70;;;21.80;99.90;;;;;;5092349;28;20055;-71
2023/07/20 11:41:51;;;;;;;4.50;2.20;;;21.90;99.90;;;;;;5092206;28;20178;-71
2023/07/20 11:44:18;;;;;;;4.57;2.03;;;21.90;99.90;;;;;;5089694;28;20056;-71
2023/07/20 11:46:44;;;;;;;5.80;2.17;;;21.80;99.90;;;;;;5092258;28;20101;-71
2023/07/20 11:49:11;;;;;;;4.60;2.33;;;21.90;99.90;;;;;;5091688;28;20048;-71
2023/07/20 11:51:37;;;;;;;4.90;2.20;;;21.90;99.90;;;;;;5092030;28;20123;-71
2023/07/20 11:54:05;;;;;;;4.77;2.60;;;22.00;99.90;;;;;;5088767;28;20080;-71
2023/07/20 11:56:31;;;;;;;4.77;2.30;;;22.00;99.90;;;;;;5089077;28;20044;-71
2023/07/20 11:59:02;;;;;;;4.60;1.83;;;22.10;99.90;;;;;;5091790;28;20520;-71
2023/07/20 12:01:32;;;;;;;4.10;2.00;;;22.10;99.90;;;;;;5092384;28;20040;-71
2023/07/20 12:04:01;;;;;;;3.37;1.90;;;22.10;99.90;;;;;;5088765;28;20522;-71
2023/07/20 12:06:28;;;;;;;4.10;1.93;;;22.10;99.90;;;;;;5092043;28;20528;-72
2023/07/20 12:08:56;;;;;;;4.37;2.20;;;22.20;99.90;;;;;;5090772;28;20087;-72
2023/07/20 12:11:35;;;;;;;4.80;2.10;;;22.40;99.90;;;;;;5095748;28;20052;-72
2023/07/20 12:14:02;;;;;;;4.30;1.80;;;22.50;99.90;;;;;;5092799;28;20054;-71
2023/07/20 12:16:29;;;;;;;5.60;2.10;;;22.50;99.90;;;;;;5095901;28;20097;-71
2023/07/20 12:19:05;;;;;;;6.00;2.83;;;22.50;99.90;;;;;;5095873;28;20081;-72
2023/07/20 12:21:32;;;;;;;5.47;2.20;;;22.40;98.30;;;;;;5096066;28;20109;-71
2023/07/20 12:23:58;;;;;;;4.43;2.17;;;22.30;99.20;;;;;;5092749;28;20079;-71
2023/07/20 12:26:25;;;;;;;5.57;2.00;;;22.20;99.50;;;;;;5094851;28;20052;-72
2023/07/20 12:28:52;;;;;;;7.20;2.00;;;22.20;99.50;;;;;;5095760;28;20051;-71
2023/07/20 12:31:18;;;;;;;7.53;2.17;;;22.30;99.50;;;;;;5095628;28;20099;-72
2023/07/20 12:33:44;;;;;;;4.37;1.90;;;22.30;98.40;;;;;;5092909;28;20083;-71
2023/07/20 12:36:10;;;;;;;4.53;2.00;;;22.30;98.30;;;;;;5094126;28;20112;-72
2023/07/20 12:38:36;;;;;;;5.90;2.20;;;22.40;97.30;;;;;;5095628;28;20048;-71
2023/07/20 12:41:02;;;;;;;6.23;2.20;;;22.40;96.50;;;;;;5095395;28;20083;-71
2023/07/20 12:43:29;;;;;;;3.43;1.70;;;22.40;95.70;;;;;;5091957;28;20060;-71
2023/07/20 12:45:56;;;;;;;4.30;2.00;;;22.30;94.50;;;;;;5077224;28;20048;-70
2023/07/20 12:48:21;;;;;;;4.67;1.87;;;22.30;94.50;;;;;;5095498;28;20055;-71
2023/07/20 12:50:47;;;;;;;4.33;1.90;;;22.30;93.20;;;;;;5095487;28;20040;-71